Time;durP1;ratioP1;P1;durP2;ratioP2;P2;SDS_P1;SDS_P2;PMS_P1;PMS_P2;Temp;Humidity;BMP_temperature;BMP_pressure;BME280_temperature;BME280_humidity;BME280_pressure;Samples;Min_cycle;Max_cycle;Signal;HPM_P1;HPM_P2
2023/08/13 00:02:28;;;;;;;13.20;8.30;;;;;;;20.48;69.01;99103.38;140970;1243;22529;-82
2023/08/13 00:05:29;;;;;;;15.80;8.70;;;;;;;20.41;68.87;99107.97;141405;1243;22838;-81
2023/08/13 00:08:30;;;;;;;14.10;8.50;;;;;;;20.24;68.63;99104.63;140789;1243;22359;-81
2023/08/13 00:11:32;;;;;;;11.30;8.10;;;;;;;19.99;69.35;99102.20;140869;1243;22577;-82
2023/08/13 00:14:33;;;;;;;10.00;7.90;;;;;;;20.07;69.96;99103.77;141478;1243;22534;-81
2023/08/13 00:17:34;;;;;;;8.60;7.60;;;;;;;20.17;69.94;99104.44;140866;1243;22550;-81
2023/08/13 00:20:36;;;;;;;9.20;7.30;;;;;;;20.26;69.71;99103.52;140951;1243;22420;-81
2023/08/13 00:23:37;;;;;;;13.00;8.20;;;;;;;20.37;69.48;99101.69;141406;1241;22506;-81
2023/08/13 00:26:38;;;;;;;10.40;7.50;;;;;;;20.44;69.15;99104.19;141028;1243;22827;-81
2023/08/13 00:29:40;;;;;;;11.30;7.80;;;;;;;20.45;68.96;99098.33;140833;1243;22561;-82
2023/08/13 00:32:41;;;;;;;11.70;8.50;;;;;;;20.47;68.96;99096.17;141265;1243;22521;-83
2023/08/13 00:35:42;;;;;;;10.50;8.10;;;;;;;20.51;69.00;99094.65;141244;1243;22908;-82
2023/08/13 00:38:43;;;;;;;8.60;7.70;;;;;;;20.57;68.64;99088.67;141074;1243;22411;-82
2023/08/13 00:41:44;;;;;;;11.30;7.50;;;;;;;20.56;68.43;99089.74;141004;1243;22505;-81
2023/08/13 00:44:45;;;;;;;12.20;7.40;;;;;;;20.53;68.23;99091.60;141332;1243;22672;-82
2023/08/13 00:47:46;;;;;;;20.60;7.80;;;;;;;20.47;68.10;99092.98;140895;1243;22703;-82
2023/08/13 00:50:48;;;;;;;11.10;7.40;;;;;;;20.35;67.97;99087.77;140795;1243;22699;-80
2023/08/13 00:53:52;;;;;;;14.60;7.40;;;;;;;20.23;67.76;99091.75;141451;1243;22979;-82
2023/08/13 00:56:53;;;;;;;;;;;;;;;20.11;68.60;99091.50;140840;1243;22505;-81
2023/08/13 00:59:54;;;;;;;16.20;8.50;;;;;;;20.14;68.82;99094.97;140832;1243;22527;-81
2023/08/13 01:02:56;;;;;;;12.10;8.00;;;;;;;20.21;68.61;99095.33;141559;1243;22519;-82
2023/08/13 01:05:57;;;;;;;13.90;8.40;;;;;;;20.24;68.33;99092.25;140938;1228;22515;-81
2023/08/13 01:08:58;;;;;;;9.90;7.90;;;;;;;20.24;68.26;99091.37;140896;1243;23087;-82
2023/08/13 01:11:59;;;;;;;16.90;9.00;;;;;;;20.24;68.29;99086.08;141271;1243;25210;-84
2023/08/13 01:15:00;;;;;;;11.80;9.20;;;;;;;20.25;68.29;99087.45;141202;1243;22364;-82
2023/08/13 01:18:02;;;;;;;11.90;8.80;;;;;;;20.29;68.01;99090.55;140700;1243;22995;-81
2023/08/13 01:21:03;;;;;;;10.50;8.40;;;;;;;20.32;67.94;99088.54;141098;1243;22949;-82
2023/08/13 01:24:04;;;;;;;8.80;7.50;;;;;;;20.34;67.53;99084.42;141460;1243;22745;-82
2023/08/13 01:27:06;;;;;;;9.20;7.90;;;;;;;20.27;67.38;99087.40;140882;1243;22378;-82
2023/08/13 01:30:07;;;;;;;12.60;8.60;;;;;;;20.24;67.41;99082.73;140904;1243;22902;-82
2023/08/13 01:33:09;;;;;;;10.00;8.10;;;;;;;20.20;67.45;99082.09;141480;1243;22447;-82
2023/08/13 01:36:10;;;;;;;10.40;8.20;;;;;;;20.25;67.63;99086.77;140945;1243;22267;-84
2023/08/13 01:39:11;;;;;;;12.40;8.10;;;;;;;20.30;67.40;99086.62;140801;1243;22584;-82
2023/08/13 01:42:12;;;;;;;9.30;8.40;;;;;;;20.34;67.35;99084.60;141456;1243;22514;-84
2023/08/13 01:45:14;;;;;;;11.50;8.60;;;;;;;20.35;67.29;99089.33;140925;1243;22384;-82
2023/08/13 01:48:15;;;;;;;12.90;7.80;;;;;;;20.33;67.27;99090.27;140897;1243;22402;-83
2023/08/13 01:51:16;;;;;;;9.60;7.80;;;;;;;20.31;67.23;99084.66;141185;1243;22512;-83
2023/08/13 01:54:17;;;;;;;10.00;8.50;;;;;;;20.30;67.23;99083.29;141073;1243;22243;-82
2023/08/13 01:57:18;;;;;;;8.70;7.40;;;;;;;20.30;67.27;99082.23;140869;1243;22377;-83
2023/08/13 02:00:19;;;;;;;9.20;7.80;;;;;;;20.28;66.99;99081.92;141154;1243;26537;-83
2023/08/13 02:03:20;;;;;;;11.10;8.40;;;;;;;20.22;67.30;99081.17;141443;1243;22447;-84
2023/08/13 02:06:22;;;;;;;13.20;8.10;;;;;;;20.24;67.43;99080.94;140738;1243;22502;-83
2023/08/13 02:09:23;;;;;;;10.30;7.70;;;;;;;20.26;67.35;99078.26;140844;1243;22556;-82
2023/08/13 02:12:24;;;;;;;11.40;8.10;;;;;;;20.28;67.19;99074.84;141494;1243;22555;-82
2023/08/13 02:15:25;;;;;;;12.40;8.40;;;;;;;20.29;67.16;99077.11;140881;1243;22398;-83
2023/08/13 02:18:26;;;;;;;13.90;7.90;;;;;;;19.94;65.60;99071.19;140909;1243;22553;-82
2023/08/13 02:21:27;;;;;;;9.20;7.80;;;;;;;18.92;66.34;99070.36;141459;1243;22534;-84
2023/08/13 02:24:28;;;;;;;9.00;7.70;;;;;;;18.10;68.33;99074.33;140946;1229;22560;-79
2023/08/13 02:27:32;;;;;;;12.90;8.50;;;;;;;17.47;70.32;99073.02;140808;1243;22335;-81
2023/08/13 02:30:33;;;;;;;14.30;9.60;;;;;;;16.99;72.11;99070.55;141181;1243;25307;-84
2023/08/13 02:33:34;;;;;;;32.70;11.20;;;;;;;16.57;73.64;99072.15;141246;1243;22356;-81
2023/08/13 02:36:35;;;;;;;11.60;8.60;;;;;;;16.23;75.71;99068.52;140756;1243;22432;-81
2023/08/13 02:39:36;;;;;;;11.90;8.90;;;;;;;16.00;77.19;99072.72;140956;1243;22501;-81
2023/08/13 02:42:37;;;;;;;12.10;9.20;;;;;;;15.87;78.56;99078.59;141539;1243;22355;-81
2023/08/13 02:45:38;;;;;;;12.40;8.90;;;;;;;15.73;79.73;99078.50;140856;1243;22331;-81
2023/08/13 02:48:39;;;;;;;15.40;9.50;;;;;;;15.61;80.85;99080.98;140870;1241;22550;-82
2023/08/13 02:51:41;;;;;;;15.60;9.00;;;;;;;15.52;82.07;99079.92;141434;1243;22459;-82
2023/08/13 02:54:42;;;;;;;12.00;8.90;;;;;;;15.44;83.10;99079.27;140947;1243;22337;-82
2023/08/13 02:57:43;;;;;;;12.20;8.40;;;;;;;15.37;84.07;99086.13;140842;1243;22515;-81
2023/08/13 03:00:44;;;;;;;10.30;8.60;;;;;;;15.30;84.97;99088.44;141394;1240;22540;-84
2023/08/13 03:03:48;;;;;;;13.50;9.30;;;;;;;15.25;85.62;99091.60;141121;1243;22373;-82
2023/08/13 03:06:50;;;;;;;10.00;9.00;;;;;;;15.22;86.46;99093.54;140905;1243;22370;-82
2023/08/13 03:09:51;;;;;;;13.70;8.30;;;;;;;15.16;87.16;99093.21;141056;1241;22628;-82
2023/08/13 03:12:52;;;;;;;11.50;8.60;;;;;;;15.08;87.78;99094.11;141457;1243;22392;-81
2023/08/13 03:15:53;;;;;;;13.30;8.70;;;;;;;15.04;88.47;99095.52;140728;1243;22364;-81
2023/08/13 03:18:54;;;;;;;12.40;8.90;;;;;;;15.01;89.21;99098.52;140922;1243;23684;-82
2023/08/13 03:21:56;;;;;;;16.10;9.00;;;;;;;14.95;89.85;99089.23;141494;1243;22345;-80
2023/08/13 03:24:57;;;;;;;43.90;28.50;;;;;;;14.95;90.47;99089.92;140854;1243;22340;-80
2023/08/13 03:27:58;;;;;;;27.20;19.70;;;;;;;14.94;90.93;99091.33;140554;1243;22356;-80
2023/08/13 03:30:59;;;;;;;13.40;10.40;;;;;;;14.93;91.65;99085.90;141312;1243;22493;-81
2023/08/13 03:34:00;;;;;;;13.00;9.60;;;;;;;14.91;91.91;99084.85;141102;1243;22714;-80
2023/08/13 03:37:02;;;;;;;11.40;8.60;;;;;;;14.92;92.55;99084.50;140949;1243;22345;-80
2023/08/13 03:40:05;;;;;;;15.00;8.90;;;;;;;14.93;93.07;99089.23;141123;1243;22534;-80
2023/08/13 03:43:07;;;;;;;10.90;9.00;;;;;;;14.93;93.10;99092.56;141554;1243;22327;-80
2023/08/13 03:46:09;;;;;;;10.10;9.00;;;;;;;14.91;93.42;99093.09;140716;1243;22521;-80
2023/08/13 03:49:10;;;;;;;9.80;8.80;;;;;;;14.89;93.77;99093.45;141283;1243;22586;-78
2023/08/13 03:52:11;;;;;;;15.10;10.30;;;;;;;14.87;93.94;99090.64;141517;1243;22343;-79
2023/08/13 03:55:13;;;;;;;11.90;8.50;;;;;;;14.88;94.18;99092.39;141168;1243;22336;-80
2023/08/13 03:58:14;;;;;;;14.60;9.50;;;;;;;14.89;94.37;99087.66;141292;1243;22967;-80
2023/08/13 04:01:20;;;;;;;16.70;9.70;;;;;;;14.91;94.85;99086.25;141505;1243;22536;-80
2023/08/13 04:04:21;;;;;;;12.80;9.30;;;;;;;14.93;95.09;99081.69;141346;1243;22599;-80
2023/08/13 04:07:22;;;;;;;10.40;9.00;;;;;;;14.96;95.33;99079.23;140727;1243;22381;-80
2023/08/13 04:10:27;;;;;;;;;;;;;;;14.99;95.56;99080.98;140927;1243;22527;-80
2023/08/13 04:13:28;;;;;;;12.50;8.60;;;;;;;14.94;95.75;99082.39;141260;1243;22326;-80
2023/08/13 04:16:29;;;;;;;10.30;9.00;;;;;;;14.92;95.83;99082.21;140770;1243;22332;-82
2023/08/13 04:19:30;;;;;;;20.90;17.30;;;;;;;14.90;95.90;99083.27;140849;1243;22535;-80
2023/08/13 04:22:32;;;;;;;15.20;12.80;;;;;;;14.91;96.24;99086.25;141154;1243;22364;-81
2023/08/13 04:25:33;;;;;;;12.10;9.90;;;;;;;14.96;97.00;99085.37;140866;1243;22588;-81
2023/08/13 04:28:34;;;;;;;16.70;9.30;;;;;;;15.03;97.26;99085.52;140907;1243;22933;-81
2023/08/13 04:31:35;;;;;;;12.50;9.80;;;;;;;15.09;97.52;99081.84;141439;1243;22352;-81
2023/08/13 04:34:36;;;;;;;11.40;9.80;;;;;;;15.19;97.48;99082.15;140921;1243;23015;-80
2023/08/13 04:37:38;;;;;;;10.90;8.70;;;;;;;15.34;97.51;99079.30;140911;1243;22360;-81
2023/08/13 04:40:39;;;;;;;10.00;8.80;;;;;;;15.54;97.63;99078.19;141244;1243;22511;-81
2023/08/13 04:43:40;;;;;;;10.20;8.90;;;;;;;15.80;97.67;99078.63;141035;1243;22347;-82
2023/08/13 04:46:41;;;;;;;98.00;74.70;;;;;;;16.08;97.33;99080.05;140805;1243;22543;-82
2023/08/13 04:49:42;;;;;;;19.10;13.30;;;;;;;16.39;96.79;99082.11;141085;1243;22574;-83
2023/08/13 04:52:44;;;;;;;15.40;10.60;;;;;;;16.69;95.83;99078.21;141303;1243;22399;-82
2023/08/13 04:55:45;;;;;;;10.90;8.50;;;;;;;16.97;94.80;99079.36;140851;1243;22434;-82
2023/08/13 04:58:46;;;;;;;13.80;8.70;;;;;;;17.23;93.44;99087.52;140849;1243;22524;-81
2023/08/13 05:01:47;;;;;;;11.20;8.70;;;;;;;17.46;92.72;99083.23;141471;1243;22578;-79
2023/08/13 05:04:49;;;;;;;16.90;9.00;;;;;;;17.74;92.16;99083.09;140920;1243;22523;-81
2023/08/13 05:07:50;;;;;;;17.60;9.10;;;;;;;18.06;91.27;99084.41;140866;1243;22531;-80
2023/08/13 05:10:51;;;;;;;14.20;8.30;;;;;;;18.43;90.24;99081.94;141428;1243;22665;-80
2023/08/13 05:13:52;;;;;;;16.00;9.50;;;;;;;18.81;89.09;99077.81;140990;1243;22435;-80
2023/08/13 05:16:53;;;;;;;14.90;8.30;;;;;;;19.19;87.55;99080.30;141033;1243;22547;-80
2023/08/13 05:19:54;;;;;;;16.60;8.10;;;;;;;19.60;86.27;99077.20;141428;1243;22504;-80
2023/08/13 05:22:55;;;;;;;10.40;7.40;;;;;;;20.00;84.78;99080.79;141049;1243;22374;-81
2023/08/13 05:25:56;;;;;;;12.60;6.90;;;;;;;20.41;82.70;99079.14;140680;1243;22563;-80
2023/08/13 05:28:57;;;;;;;8.30;6.40;;;;;;;20.82;80.98;99077.08;141178;1243;22698;-80
2023/08/13 05:31:58;;;;;;;13.70;6.80;;;;;;;21.22;79.10;99079.24;141351;1243;22366;-81
2023/08/13 05:34:59;;;;;;;7.00;5.40;;;;;;;21.62;76.65;99083.80;140824;1243;22505;-81
2023/08/13 05:38:00;;;;;;;9.10;6.00;;;;;;;22.01;74.69;99083.34;140913;1243;22502;-81
2023/08/13 05:41:01;;;;;;;6.90;5.60;;;;;;;22.44;73.49;99088.94;141535;1243;22776;-82
2023/08/13 05:44:06;;;;;;;12.60;5.60;;;;;;;22.88;71.82;99087.17;140897;1243;22367;-80
2023/08/13 05:47:08;;;;;;;12.70;4.70;;;;;;;23.30;70.17;99090.14;140716;1243;22422;-81
2023/08/13 05:50:09;;;;;;;8.50;4.80;;;;;;;23.63;68.27;99092.73;141495;1243;22523;-81
2023/08/13 05:53:10;;;;;;;6.60;4.30;;;;;;;23.82;67.49;99090.59;140858;1243;22411;-82
2023/08/13 05:56:11;;;;;;;5.90;4.60;;;;;;;24.14;66.53;99091.83;140836;1243;22947;-81
2023/08/13 05:59:12;;;;;;;6.30;4.50;;;;;;;24.46;65.28;99092.19;141223;1243;25639;-83
2023/08/13 06:02:13;;;;;;;7.80;4.40;;;;;;;24.73;63.98;99096.42;141200;1243;22912;-81
2023/08/13 06:05:14;;;;;;;7.90;4.20;;;;;;;24.61;63.59;99099.77;140713;1243;22535;-81
2023/08/13 06:08:16;;;;;;;6.00;4.40;;;;;;;24.63;63.77;99099.86;141005;1243;22512;-84
2023/08/13 06:11:17;;;;;;;5.60;4.20;;;;;;;24.58;62.25;99100.25;141318;1243;22411;-81
2023/08/13 06:14:18;;;;;;;5.20;4.60;;;;;;;24.62;62.21;99102.56;140876;1243;22530;-82
2023/08/13 06:17:19;;;;;;;5.50;3.90;;;;;;;24.65;62.27;99099.63;140885;1243;22505;-81
2023/08/13 06:20:20;;;;;;;5.10;4.20;;;;;;;24.69;62.72;99099.98;141521;1243;22466;-81
2023/08/13 06:23:21;;;;;;;4.60;4.10;;;;;;;24.70;62.29;99102.25;140892;1243;22434;-80
2023/08/13 06:26:22;;;;;;;7.30;3.90;;;;;;;24.53;61.80;99103.30;140769;1243;22414;-80
2023/08/13 06:29:23;;;;;;;6.60;4.20;;;;;;;24.35;62.17;99102.80;141335;1240;22494;-81
2023/08/13 06:32:24;;;;;;;5.30;3.80;;;;;;;24.16;62.64;99103.50;140990;1243;22451;-82
2023/08/13 06:35:25;;;;;;;6.20;4.00;;;;;;;24.11;63.02;99103.66;140814;1243;22537;-83
2023/08/13 06:38:28;;;;;;;5.20;3.80;;;;;;;24.14;62.98;99103.75;141289;1243;24107;-80
2023/08/13 06:41:29;;;;;;;4.90;3.80;;;;;;;24.21;63.19;99104.71;141246;1243;22366;-80
2023/08/13 06:44:30;;;;;;;4.60;3.70;;;;;;;24.34;63.02;99102.66;140872;1243;22550;-80
2023/08/13 06:47:31;;;;;;;6.00;3.50;;;;;;;24.37;62.45;99106.45;140955;1243;24734;-81
2023/08/13 06:50:33;;;;;;;6.00;5.40;;;;;;;24.36;62.43;99112.02;141318;1243;22506;-81
2023/08/13 06:53:34;;;;;;;6.40;5.00;;;;;;;24.47;61.94;99110.66;140893;1243;22384;-82
2023/08/13 06:56:35;;;;;;;8.10;5.50;;;;;;;24.71;61.26;99116.09;140981;1243;22913;-82
2023/08/13 06:59:36;;;;;;;5.30;4.70;;;;;;;24.88;60.75;99114.31;141524;1240;22370;-82
2023/08/13 07:02:37;;;;;;;6.70;4.40;;;;;;;25.21;59.93;99112.77;140995;1243;22391;-81
2023/08/13 07:05:39;;;;;;;5.80;4.30;;;;;;;25.65;58.60;99111.39;140890;1243;23093;-81
2023/08/13 07:08:40;;;;;;;4.60;4.20;;;;;;;25.97;57.52;99114.73;141340;1243;22559;-81
2023/08/13 07:11:42;;;;;;;4.90;4.30;;;;;;;26.28;56.86;99116.52;141133;1243;22386;-81
2023/08/13 07:14:43;;;;;;;4.00;3.50;;;;;;;26.66;56.37;99121.13;140963;1243;22399;-81
2023/08/13 07:17:44;;;;;;;5.50;4.30;;;;;;;27.01;54.85;99121.20;141208;1243;22522;-81
2023/08/13 07:20:45;;;;;;;7.10;3.90;;;;;;;27.14;54.35;99123.92;141330;1243;22385;-82
2023/08/13 07:23:47;;;;;;;6.70;4.00;;;;;;;27.40;53.38;99119.33;141006;1243;22575;-82
2023/08/13 07:26:48;;;;;;;4.20;3.50;;;;;;;27.70;52.51;99114.38;140849;1243;22536;-80
2023/08/13 07:29:49;;;;;;;11.10;4.30;;;;;;;27.80;51.08;99112.96;141614;1243;23016;-82
2023/08/13 07:32:51;;;;;;;4.80;4.20;;;;;;;27.74;50.86;99118.99;140950;1243;22407;-81
2023/08/13 07:35:52;;;;;;;4.50;3.50;;;;;;;27.65;51.54;99116.27;140773;1243;22542;-81
2023/08/13 07:38:53;;;;;;;10.10;4.00;;;;;;;27.67;51.47;99110.27;141419;1243;22843;-81
2023/08/13 07:41:54;;;;;;;6.80;3.70;;;;;;;27.68;51.36;99115.21;140936;1243;22337;-82
2023/08/13 07:44:55;;;;;;;5.70;4.20;;;;;;;27.70;51.53;99117.60;140916;1243;22547;-81
2023/08/13 07:47:56;;;;;;;4.20;3.80;;;;;;;27.77;51.11;99113.33;141209;1243;22611;-82
2023/08/13 07:50:57;;;;;;;6.30;4.10;;;;;;;27.81;51.01;99117.38;141226;1243;22394;-81
2023/08/13 07:53:58;;;;;;;4.50;4.10;;;;;;;27.65;47.59;99113.77;140925;1243;22553;-81
2023/08/13 07:56:59;;;;;;;5.00;4.40;;;;;;;27.10;45.75;99118.41;141039;1243;25406;-82
2023/08/13 08:00:00;;;;;;;5.90;4.20;;;;;;;26.85;43.88;99117.86;141215;1243;22839;-82
2023/08/13 08:03:01;;;;;;;6.50;4.10;;;;;;;26.70;43.73;99120.36;140936;1243;22379;-81
2023/08/13 08:06:04;;;;;;;5.40;3.80;;;;;;;26.51;42.68;99112.73;140946;1243;22498;-80
2023/08/13 08:09:06;;;;;;;7.40;3.80;;;;;;;26.30;41.41;99111.23;141467;1243;22512;-81
2023/08/13 08:12:07;;;;;;;4.60;3.60;;;;;;;26.12;44.74;99114.59;140952;1237;22509;-81
2023/08/13 08:15:08;;;;;;;5.10;3.40;;;;;;;26.46;47.76;99115.14;140913;1240;22529;-84
2023/08/13 08:18:09;;;;;;;4.30;3.70;;;;;;;26.94;48.08;99112.60;141484;1243;22413;-81
2023/08/13 08:21:10;;;;;;;9.10;4.00;;;;;;;27.31;50.07;99111.25;140936;1243;22383;-82
2023/08/13 08:24:11;;;;;;;7.80;3.70;;;;;;;27.62;50.46;99108.41;140878;1243;22544;-82
2023/08/13 08:27:12;;;;;;;6.80;4.00;;;;;;;27.92;51.15;99106.95;141182;1243;25506;-83
2023/08/13 08:30:13;;;;;;;7.50;3.70;;;;;;;28.19;50.99;99107.77;141050;1243;22388;-82
2023/08/13 08:33:14;;;;;;;8.70;4.00;;;;;;;28.51;50.87;99109.73;140948;1243;22429;-81
2023/08/13 08:36:15;;;;;;;4.40;4.00;;;;;;;28.70;50.15;99109.02;140982;1243;22579;-83
2023/08/13 08:39:18;;;;;;;8.30;4.20;;;;;;;28.70;49.92;99109.44;141378;1243;22426;-81
2023/08/13 08:42:19;;;;;;;5.50;4.00;;;;;;;28.64;50.09;99109.77;140994;1243;22536;-81
2023/08/13 08:45:20;;;;;;;6.10;3.20;;;;;;;28.86;50.23;99104.95;141187;1243;22531;-81
2023/08/13 08:48:21;;;;;;;4.90;3.20;;;;;;;29.18;50.60;99107.85;141387;1240;22424;-81
2023/08/13 08:51:23;;;;;;;3.50;3.20;;;;;;;29.42;49.68;99107.33;140954;1243;22316;-82
2023/08/13 08:54:24;;;;;;;4.40;3.50;;;;;;;29.46;49.59;99108.14;140900;1243;22520;-81
2023/08/13 08:57:25;;;;;;;8.50;3.60;;;;;;;29.53;48.77;99110.63;141417;1243;23111;-82
2023/08/13 09:00:26;;;;;;;4.40;3.20;;;;;;;29.53;48.60;99102.36;140967;1243;22171;-82
2023/08/13 09:03:27;;;;;;;3.20;2.80;;;;;;;29.52;47.95;99106.39;140906;1243;22531;-82
2023/08/13 09:06:28;;;;;;;3.00;2.70;;;;;;;29.42;47.96;99106.24;141300;1243;22500;-84
2023/08/13 09:09:30;;;;;;;5.10;3.40;;;;;;;29.45;47.92;99102.13;141158;1243;22453;-81
2023/08/13 09:12:31;;;;;;;3.50;3.20;;;;;;;29.46;48.19;99110.84;140931;1243;22536;-83
2023/08/13 09:15:32;;;;;;;6.00;3.00;;;;;;;29.31;47.98;99106.73;141137;1243;22958;-81
2023/08/13 09:18:33;;;;;;;6.10;3.90;;;;;;;29.38;48.19;99105.73;141455;1243;23022;-82
2023/08/13 09:21:34;;;;;;;4.10;3.40;;;;;;;29.31;48.38;99109.77;140806;1243;23312;-82
2023/08/13 09:24:35;;;;;;;4.80;3.40;;;;;;;29.37;48.88;99110.30;140918;1243;22488;-80
2023/08/13 09:27:36;;;;;;;8.80;4.00;;;;;;;29.47;48.26;99106.66;141541;1243;22860;-80
2023/08/13 09:30:37;;;;;;;4.30;3.90;;;;;;;29.49;48.01;99115.14;140860;1243;22379;-81
2023/08/13 09:33:38;;;;;;;5.70;3.50;;;;;;;29.41;48.04;99112.88;140966;1243;22392;-81
2023/08/13 09:36:39;;;;;;;7.10;3.20;;;;;;;29.43;47.76;99114.58;141505;1243;22552;-80
2023/08/13 09:39:41;;;;;;;4.10;3.50;;;;;;;29.44;47.57;99112.54;140949;1243;22511;-81
2023/08/13 09:42:42;;;;;;;5.90;3.70;;;;;;;29.54;48.02;99112.02;140960;1243;22466;-81
2023/08/13 09:45:43;;;;;;;4.10;3.70;;;;;;;29.55;47.24;99110.48;141248;1243;22497;-81
2023/08/13 09:48:44;;;;;;;8.40;4.20;;;;;;;29.63;47.58;99110.70;141167;1243;22860;-81
2023/08/13 09:51:45;;;;;;;5.60;3.40;;;;;;;29.71;47.52;99109.09;140947;1243;22393;-81
2023/08/13 09:54:46;;;;;;;4.70;3.60;;;;;;;29.72;47.47;99103.14;141647;1243;22239;-80
2023/08/13 09:57:47;;;;;;;4.60;3.50;;;;;;;29.85;47.34;99099.46;141540;1243;22379;-81
2023/08/13 10:00:48;;;;;;;3.70;3.30;;;;;;;30.01;47.60;99103.52;141002;1243;22405;-81
2023/08/13 10:03:49;;;;;;;5.80;3.30;;;;;;;29.99;46.96;99107.95;140941;1228;22531;-80
2023/08/13 10:06:50;;;;;;;3.80;3.40;;;;;;;30.08;47.21;99103.98;141532;1243;22524;-80
2023/08/13 10:09:51;;;;;;;5.70;3.20;;;;;;;30.27;47.19;99106.52;140978;1243;22882;-80
2023/08/13 10:12:52;;;;;;;3.40;3.10;;;;;;;30.54;46.94;99105.80;140912;1243;22385;-80
2023/08/13 10:15:53;;;;;;;6.40;3.20;;;;;;;30.70;45.94;99112.17;141348;1243;22500;-82
2023/08/13 10:18:54;;;;;;;6.90;3.10;;;;;;;30.71;45.17;99111.90;141077;1243;22547;-80
2023/08/13 10:21:56;;;;;;;5.10;3.40;;;;;;;30.57;44.77;99109.10;141039;1240;22383;-80
2023/08/13 10:24:57;;;;;;;6.30;3.20;;;;;;;30.45;45.11;99110.94;141097;1243;22554;-80
2023/08/13 10:27:58;;;;;;;4.10;3.00;;;;;;;30.60;44.92;99113.91;141293;1243;22379;-81
2023/08/13 10:30:59;;;;;;;4.20;2.70;;;;;;;30.77;44.82;99112.27;140818;1243;22717;-79
2023/08/13 10:34:00;;;;;;;3.10;2.80;;;;;;;30.98;44.65;99111.02;140839;1243;22586;-79
2023/08/13 10:37:01;;;;;;;5.60;3.00;;;;;;;31.05;44.19;99107.64;141556;1243;22517;-79
2023/08/13 10:40:02;;;;;;;3.90;3.10;;;;;;;31.12;44.42;99107.00;140940;1243;22378;-79
2023/08/13 10:43:03;;;;;;;4.00;3.10;;;;;;;31.23;43.68;99108.80;140917;1243;24274;-79
2023/08/13 10:46:05;;;;;;;6.10;2.80;;;;;;;31.10;43.22;99102.66;141454;1243;22536;-79
2023/08/13 10:49:06;;;;;;;4.50;2.40;;;;;;;30.96;43.34;99105.23;141241;1243;22531;-80
2023/08/13 10:52:07;;;;;;;7.40;3.80;;;;;;;30.95;43.44;99105.42;141112;1243;22365;-78
2023/08/13 10:55:08;;;;;;;4.70;2.50;;;;;;;30.97;43.45;99107.14;140977;1240;22607;-78
2023/08/13 10:58:09;;;;;;;3.40;2.80;;;;;;;30.90;42.07;99099.85;141417;1243;22382;-78
2023/08/13 11:01:11;;;;;;;3.40;2.90;;;;;;;30.89;41.63;99101.56;140752;1240;179873;-78
2023/08/13 11:04:12;;;;;;;3.40;2.60;;;;;;;30.83;42.03;99104.65;141403;1243;22507;-78
2023/08/13 11:07:13;;;;;;;3.00;2.70;;;;;;;30.97;42.21;99103.18;141613;1243;22397;-78
2023/08/13 11:10:14;;;;;;;4.20;3.10;;;;;;;31.05;42.74;99103.73;141195;1243;25209;-79
2023/08/13 11:13:15;;;;;;;6.80;3.10;;;;;;;31.15;43.12;99103.02;141155;1243;22540;-79
2023/08/13 11:16:16;;;;;;;3.30;2.90;;;;;;;31.34;42.88;99101.04;141296;1243;22555;-79
2023/08/13 11:19:17;;;;;;;3.20;2.70;;;;;;;31.54;42.79;99100.14;141112;1243;22539;-78
2023/08/13 11:22:18;;;;;;;3.40;2.60;;;;;;;31.80;41.38;99101.77;141220;1243;22557;-78
2023/08/13 11:25:19;;;;;;;2.90;2.60;;;;;;;31.73;41.03;99100.48;141324;1243;22500;-78
2023/08/13 11:28:20;;;;;;;2.80;2.60;;;;;;;31.77;41.20;99102.38;141116;1243;22507;-77
2023/08/13 11:31:22;;;;;;;3.90;2.80;;;;;;;31.88;41.08;99091.16;141284;1243;22544;-77
2023/08/13 11:34:23;;;;;;;6.20;2.80;;;;;;;32.01;41.21;99094.71;141304;1243;22516;-78
2023/08/13 11:37:24;;;;;;;4.90;2.70;;;;;;;32.24;40.46;99096.11;141328;1243;22415;-77
2023/08/13 11:40:25;;;;;;;5.50;3.10;;;;;;;32.56;40.54;99094.11;140831;1243;22419;-80
2023/08/13 11:43:28;;;;;;;6.00;2.90;;;;;;;32.81;39.94;99095.66;141092;1243;22554;-79
2023/08/13 11:46:29;;;;;;;3.10;2.80;;;;;;;32.74;39.79;99094.94;141481;1243;22915;-80
2023/08/13 11:49:30;;;;;;;3.70;3.00;;;;;;;32.22;40.27;99093.40;140921;1243;22859;-79
2023/08/13 11:52:31;;;;;;;12.10;3.10;;;;;;;32.00;40.27;99089.02;140923;1243;22964;-80
2023/08/13 11:55:32;;;;;;;6.40;3.10;;;;;;;32.09;40.95;99083.54;141566;1243;22742;-82
2023/08/13 11:58:33;;;;;;;5.40;2.80;;;;;;;32.33;40.97;99087.05;140984;1243;22439;-80
2023/08/13 12:01:34;;;;;;;4.10;2.70;;;;;;;32.11;40.16;99089.31;140897;1243;22388;-78
2023/08/13 12:04:35;;;;;;;2.90;2.70;;;;;;;31.70;40.55;99080.89;141295;1243;24193;-78
2023/08/13 12:07:36;;;;;;;4.10;3.00;;;;;;;31.82;40.46;99079.18;141211;1243;22493;-80
2023/08/13 12:10:37;;;;;;;6.40;3.00;;;;;;;32.03;39.52;99082.89;140812;1243;22557;-80
2023/08/13 12:13:38;;;;;;;7.80;2.50;;;;;;;31.97;39.57;99083.86;141083;1243;22497;-82
2023/08/13 12:16:39;;;;;;;3.20;2.70;;;;;;;32.03;40.01;99082.65;141357;1243;22528;-80
2023/08/13 12:19:41;;;;;;;3.30;3.00;;;;;;;32.20;39.85;99086.14;140912;1243;22535;-80
2023/08/13 12:22:42;;;;;;;3.30;2.90;;;;;;;32.17;39.71;99081.31;140895;1240;22564;-81
2023/08/13 12:25:43;;;;;;;6.90;3.20;;;;;;;32.08;39.43;99081.05;141633;1243;22784;-81
2023/08/13 12:28:47;;;;;;;6.40;3.00;;;;;;;32.02;40.27;99082.41;140910;1243;22354;-82
2023/08/13 12:31:49;;;;;;;10.20;3.40;;;;;;;32.09;40.22;99080.30;140973;1243;22748;-81
2023/08/13 12:34:50;;;;;;;4.60;3.00;;;;;;;32.18;40.07;99082.00;141398;1243;22516;-81
2023/08/13 12:37:51;;;;;;;3.90;2.90;;;;;;;32.27;39.22;99074.27;141156;1243;22363;-81
2023/08/13 12:40:52;;;;;;;8.10;2.90;;;;;;;32.38;39.33;99070.43;140976;1243;22427;-81
2023/08/13 12:43:53;;;;;;;3.20;2.90;;;;;;;32.44;39.23;99070.02;141103;1243;23395;-81
2023/08/13 12:46:54;;;;;;;3.70;2.80;;;;;;;32.42;39.00;99067.07;141377;1243;22361;-82
2023/08/13 12:49:55;;;;;;;4.10;2.60;;;;;;;32.29;39.54;99068.21;140917;1243;22947;-82
2023/08/13 12:52:58;;;;;;;4.50;2.80;;;;;;;32.31;39.52;99070.80;140889;1242;23002;-82
2023/08/13 12:56:04;;;;;;;;;;;;;;;32.39;39.12;99065.71;141644;1243;22476;-82
2023/08/13 12:59:05;;;;;;;5.80;2.90;;;;;;;32.42;38.30;99067.09;140980;1243;22444;-82
2023/08/13 13:02:06;;;;;;;6.90;2.70;;;;;;;32.18;38.71;99062.92;140950;1243;22396;-82
2023/08/13 13:05:07;;;;;;;5.50;3.00;;;;;;;32.14;38.94;99058.66;141538;1243;22464;-82
2023/08/13 13:08:08;;;;;;;8.30;2.60;;;;;;;32.22;38.85;99059.53;141271;1243;22542;-82
2023/08/13 13:11:09;;;;;;;5.90;2.70;;;;;;;32.34;38.76;99062.48;141042;1243;22968;-82
2023/08/13 13:14:11;;;;;;;4.00;2.90;;;;;;;31.93;38.81;99062.91;141277;1243;22547;-84
2023/08/13 13:17:13;;;;;;;4.10;2.70;;;;;;;31.62;40.07;99054.28;141357;1243;22808;-82
2023/08/13 13:20:18;;;;;;;6.00;2.90;;;;;;;31.89;40.00;99058.16;140785;1243;22502;-80
2023/08/13 13:23:19;;;;;;;2.70;2.50;;;;;;;32.08;40.18;99052.98;140908;1243;22497;-82
2023/08/13 13:26:20;;;;;;;4.10;3.00;;;;;;;32.28;39.68;99057.47;141469;1243;22778;-81
2023/08/13 13:29:23;;;;;;;3.00;2.70;;;;;;;32.52;39.11;99051.94;140899;1243;22392;-81
2023/08/13 13:32:25;;;;;;;5.00;2.90;;;;;;;32.65;38.59;99046.23;140956;1243;24862;-82
2023/08/13 13:35:26;;;;;;;7.00;2.60;;;;;;;32.76;38.16;99049.19;141516;1243;22510;-82
2023/08/13 13:38:27;;;;;;;3.40;2.90;;;;;;;32.67;37.53;99050.77;140849;1243;22517;-82
2023/08/13 13:41:28;;;;;;;8.20;2.90;;;;;;;32.46;38.09;99048.98;140954;1243;22404;-82
2023/08/13 13:44:29;;;;;;;5.40;2.80;;;;;;;32.41;38.42;99045.16;141343;1240;24204;-82
2023/08/13 13:47:30;;;;;;;3.10;2.60;;;;;;;32.29;37.67;99040.14;141111;1243;22399;-82
2023/08/13 13:50:31;;;;;;;7.10;2.70;;;;;;;32.13;38.04;99044.52;141005;1243;22375;-81
2023/08/13 13:53:32;;;;;;;4.20;2.70;;;;;;;32.02;38.33;99037.91;141114;1243;22517;-82
2023/08/13 13:56:33;;;;;;;2.70;2.50;;;;;;;32.06;38.43;99031.17;141361;1243;22380;-81
2023/08/13 13:59:34;;;;;;;4.40;2.80;;;;;;;32.25;38.84;99036.59;140955;1243;22379;-82